Belfry, MT (59008)

11:05 AM MST on February 14, 2016 (GMT -0700)
Old Town | | Change Station
CLOSE
Current Station
Personal Weather Station
Location: Red Lodge, MT
Elevation: 5594 ft
Nearby Weather Stations

Elev 5594 ft 45.18 °N, 109.25 °W | Updated 12 minutes ago

Partly Cloudy
Partly Cloudy
43.0 °F
Feels Like 39 °F
N
6.8
Wind Variable Wind from SW

Today
High -- | Low -- °F
--% Chance of Precip.
Yesterday
High -- | Low -- °F
Precip. -- in
Pressure 29.88 in
Visibility 10.0 miles
Clouds Few 10000 ft
Windchill 39 °F
Dew Point 22 °F
Humidity 43%
Rainfall 0.00 in
Snow Depth Not available.
7:19 AM 5:42 PM
Waxing Crescent, 44% visible
METAR KCOD 141755Z AUTO 25014G20KT 10SM FEW100 06/M06 A2988 RMK AO1 10070 20030 52007
Pressure 29.88 in
Visibility 10.0 miles
Clouds Few 10000 ft
Windchill 39 °F
Dew Point 22 °F
Humidity 43%
Rainfall 0.00 in
Snow Depth Not available.
7:19 AM 5:42 PM
Waxing Crescent, 44% visible
METAR KCOD 141755Z AUTO 25014G20KT 10SM FEW100 06/M06 A2988 RMK AO1 10070 20030 52007

10-Day Weather Forecast

Almanac

Astronomy

Feb. 14, 2016 Rise Set
Actual Time
Civil Twilight
Nautical Twilight
Astronomical Twilight
Moon
Length of Visible Light
Length of Day
Tomorrow will be .
, % of the Moon is Illuminated

Today's Extremes

State Highs State Lows

Community

WunderPhotos

Upload Photos

1,892,866 photos uploaded!

WunderBlog® & News

Nearby

Air Quality

  Air Quality AQ Index Pollutant
Not available.

Snow Depth

Station Depth Elevation

Earthquake Activity

City Distance Mag. Time & Date
Minimum magnitude displayed is 2.5.

Coastal Water Temperatures

Place Temperature

Stations

Nearby Weather Stations

Station Location Temp. Windchill Dew Point Humidity Wind Precip. Elev Updated Type
                   

Watches & Warnings

There are currently no watches in effect.